sensor_id;sensor_type;location;lat;lon;timestamp;pressure;altitude;pressure_sealevel;temperature;humidity
71778;BME280;59609;52.430;4.668;2023-08-20T00:00:45;102074.00;;;17.39;100.00
71778;BME280;59609;52.430;4.668;2023-08-20T00:03:12;102064.09;;;17.37;100.00
71778;BME280;59609;52.430;4.668;2023-08-20T00:05:39;102068.25;;;17.41;100.00
71778;BME280;59609;52.430;4.668;2023-08-20T00:08:05;102076.03;;;17.45;100.00
71778;BME280;59609;52.430;4.668;2023-08-20T00:10:31;102075.88;;;17.47;100.00
71778;BME280;59609;52.430;4.668;2023-08-20T00:12:57;102079.34;;;17.57;100.00
71778;BME280;59609;52.430;4.668;2023-08-20T00:15:22;102046.47;;;17.44;100.00
71778;BME280;59609;52.430;4.668;2023-08-20T00:17:52;102063.66;;;17.56;100.00
71778;BME280;59609;52.430;4.668;2023-08-20T00:20:18;102054.75;;;17.52;100.00
71778;BME280;59609;52.430;4.668;2023-08-20T00:22:44;102023.34;;;17.36;100.00
71778;BME280;59609;52.430;4.668;2023-08-20T00:25:11;102057.03;;;17.49;100.00
71778;BME280;59609;52.430;4.668;2023-08-20T00:27:37;102073.41;;;17.52;100.00
71778;BME280;59609;52.430;4.668;2023-08-20T00:30:03;102080.94;;;17.43;100.00
71778;BME280;59609;52.430;4.668;2023-08-20T00:32:29;102095.03;;;17.42;100.00
71778;BME280;59609;52.430;4.668;2023-08-20T00:34:54;102087.75;;;17.41;100.00
71778;BME280;59609;52.430;4.668;2023-08-20T00:37:19;102097.16;;;17.40;100.00
71778;BME280;59609;52.430;4.668;2023-08-20T00:39:45;102106.56;;;17.39;100.00
71778;BME280;59609;52.430;4.668;2023-08-20T00:42:10;102109.91;;;17.34;100.00
71778;BME280;59609;52.430;4.668;2023-08-20T00:44:38;102114.59;;;17.34;100.00
71778;BME280;59609;52.430;4.668;2023-08-20T00:47:06;102107.31;;;17.25;100.00
71778;BME280;59609;52.430;4.668;2023-08-20T00:49:32;102113.22;;;17.22;100.00
71778;BME280;59609;52.430;4.668;2023-08-20T00:51:58;102109.41;;;17.15;100.00
71778;BME280;59609;52.430;4.668;2023-08-20T00:54:24;102117.09;;;17.21;100.00
71778;BME280;59609;52.430;4.668;2023-08-20T00:56:50;102128.91;;;17.31;100.00
71778;BME280;59609;52.430;4.668;2023-08-20T00:59:17;102130.09;;;17.36;100.00
71778;BME280;59609;52.430;4.668;2023-08-20T01:01:43;102116.31;;;17.35;100.00
71778;BME280;59609;52.430;4.668;2023-08-20T01:04:08;102110.75;;;17.35;100.00
71778;BME280;59609;52.430;4.668;2023-08-20T01:12:17;102132.78;;;17.52;100.00
71778;BME280;59609;52.430;4.668;2023-08-20T01:14:43;102134.00;;;17.58;100.00
71778;BME280;59609;52.430;4.668;2023-08-20T01:17:08;102119.41;;;17.56;100.00
71778;BME280;59609;52.430;4.668;2023-08-20T01:19:34;102130.38;;;17.58;100.00
71778;BME280;59609;52.430;4.668;2023-08-20T01:27:35;102123.56;;;17.60;100.00
71778;BME280;59609;52.430;4.668;2023-08-20T01:30:06;102124.63;;;17.51;100.00
71778;BME280;59609;52.430;4.668;2023-08-20T01:32:32;102117.16;;;17.43;100.00
71778;BME280;59609;52.430;4.668;2023-08-20T01:34:58;102123.63;;;17.44;100.00
71778;BME280;59609;52.430;4.668;2023-08-20T01:37:23;102123.63;;;17.44;100.00
71778;BME280;59609;52.430;4.668;2023-08-20T01:39:49;102117.53;;;17.40;100.00
71778;BME280;59609;52.430;4.668;2023-08-20T01:42:14;102116.47;;;17.41;100.00
71778;BME280;59609;52.430;4.668;2023-08-20T01:44:39;102107.28;;;17.33;100.00
71778;BME280;59609;52.430;4.668;2023-08-20T01:47:05;102133.22;;;17.33;100.00
71778;BME280;59609;52.430;4.668;2023-08-20T01:49:30;102113.78;;;17.17;100.00
71778;BME280;59609;52.430;4.668;2023-08-20T01:51:56;102129.78;;;17.23;100.00
71778;BME280;59609;52.430;4.668;2023-08-20T01:54:21;102108.75;;;17.13;100.00
71778;BME280;59609;52.430;4.668;2023-08-20T01:56:47;102106.31;;;17.10;100.00
71778;BME280;59609;52.430;4.668;2023-08-20T01:59:12;102121.44;;;17.15;100.00
71778;BME280;59609;52.430;4.668;2023-08-20T02:01:38;102111.88;;;17.10;100.00
71778;BME280;59609;52.430;4.668;2023-08-20T02:04:03;102112.78;;;17.02;100.00
71778;BME280;59609;52.430;4.668;2023-08-20T02:06:28;102119.41;;;17.01;100.00
71778;BME280;59609;52.430;4.668;2023-08-20T02:08:54;102100.13;;;16.83;100.00
71778;BME280;59609;52.430;4.668;2023-08-20T02:11:19;102124.63;;;16.88;100.00
71778;BME280;59609;52.430;4.668;2023-08-20T02:13:44;102126.56;;;16.79;100.00
71778;BME280;59609;52.430;4.668;2023-08-20T02:16:10;102106.75;;;16.66;100.00
71778;BME280;59609;52.430;4.668;2023-08-20T02:18:35;102121.19;;;16.70;100.00
71778;BME280;59609;52.430;4.668;2023-08-20T02:21:01;102105.72;;;16.59;100.00
71778;BME280;59609;52.430;4.668;2023-08-20T02:23:26;102117.69;;;16.76;100.00
71778;BME280;59609;52.430;4.668;2023-08-20T02:25:51;102115.63;;;16.78;100.00
71778;BME280;59609;52.430;4.668;2023-08-20T02:28:17;102131.06;;;16.88;100.00
71778;BME280;59609;52.430;4.668;2023-08-20T02:30:44;102121.34;;;16.84;100.00
71778;BME280;59609;52.430;4.668;2023-08-20T02:33:10;102116.63;;;16.85;100.00
71778;BME280;59609;52.430;4.668;2023-08-20T02:35:36;102117.88;;;16.82;100.00
71778;BME280;59609;52.430;4.668;2023-08-20T02:38:02;102120.28;;;16.85;100.00
71778;BME280;59609;52.430;4.668;2023-08-20T02:40:27;102124.47;;;16.89;100.00
71778;BME280;59609;52.430;4.668;2023-08-20T02:42:53;102107.28;;;16.78;100.00
71778;BME280;59609;52.430;4.668;2023-08-20T02:45:18;102135.97;;;16.86;100.00
71778;BME280;59609;52.430;4.668;2023-08-20T02:47:44;102137.34;;;16.82;100.00
71778;BME280;59609;52.430;4.668;2023-08-20T02:50:09;102133.16;;;16.78;100.00
71778;BME280;59609;52.430;4.668;2023-08-20T02:52:34;102144.31;;;16.78;100.00
71778;BME280;59609;52.430;4.668;2023-08-20T02:55:00;102145.19;;;16.79;100.00
71778;BME280;59609;52.430;4.668;2023-08-20T02:57:25;102158.94;;;16.80;100.00
71778;BME280;59609;52.430;4.668;2023-08-20T02:59:51;102161.72;;;16.80;100.00
71778;BME280;59609;52.430;4.668;2023-08-20T03:02:16;102154.91;;;16.75;100.00
71778;BME280;59609;52.430;4.668;2023-08-20T03:04:42;102157.53;;;16.76;100.00
71778;BME280;59609;52.430;4.668;2023-08-20T03:07:08;102163.81;;;16.70;100.00
71778;BME280;59609;52.430;4.668;2023-08-20T03:09:33;102160.66;;;16.65;100.00
71778;BME280;59609;52.430;4.668;2023-08-20T03:11:58;102168.31;;;16.71;100.00
71778;BME280;59609;52.430;4.668;2023-08-20T03:14:24;102166.41;;;16.72;100.00
71778;BME280;59609;52.430;4.668;2023-08-20T03:16:49;102171.44;;;16.68;100.00
71778;BME280;59609;52.430;4.668;2023-08-20T03:19:15;102173.03;;;16.79;100.00
71778;BME280;59609;52.430;4.668;2023-08-20T03:21:41;102167.28;;;16.72;100.00
71778;BME280;59609;52.430;4.668;2023-08-20T03:24:07;102166.25;;;16.65;100.00
71778;BME280;59609;52.430;4.668;2023-08-20T03:26:32;102183.09;;;16.72;100.00
71778;BME280;59609;52.430;4.668;2023-08-20T03:28:58;102178.09;;;16.67;100.00
71778;BME280;59609;52.430;4.668;2023-08-20T03:31:24;102171.13;;;16.63;100.00
71778;BME280;59609;52.430;4.668;2023-08-20T03:33:49;102181.91;;;16.66;100.00
71778;BME280;59609;52.430;4.668;2023-08-20T03:36:15;102175.75;;;16.55;100.00
71778;BME280;59609;52.430;4.668;2023-08-20T03:38:40;102164.16;;;16.51;100.00
71778;BME280;59609;52.430;4.668;2023-08-20T03:41:05;102155.25;;;16.39;100.00
71778;BME280;59609;52.430;4.668;2023-08-20T03:43:31;102174.88;;;16.38;100.00
71778;BME280;59609;52.430;4.668;2023-08-20T03:45:56;102182.53;;;16.36;100.00
71778;BME280;59609;52.430;4.668;2023-08-20T03:48:22;102176.63;;;16.23;100.00
71778;BME280;59609;52.430;4.668;2023-08-20T03:50:47;102184.28;;;16.21;100.00
71778;BME280;59609;52.430;4.668;2023-08-20T03:53:12;102182.50;;;16.12;100.00
71778;BME280;59609;52.430;4.668;2023-08-20T03:55:38;102165.97;;;16.02;100.00
71778;BME280;59609;52.430;4.668;2023-08-20T03:58:03;102184.09;;;16.14;100.00
71778;BME280;59609;52.430;4.668;2023-08-20T04:00:29;102190.97;;;16.02;100.00
71778;BME280;59609;52.430;4.668;2023-08-20T04:02:54;102193.75;;;16.02;100.00
71778;BME280;59609;52.430;4.668;2023-08-20T04:05:19;102179.00;;;15.93;100.00
71778;BME280;59609;52.430;4.668;2023-08-20T04:07:45;102178.78;;;15.87;100.00
71778;BME280;59609;52.430;4.668;2023-08-20T04:10:11;102187.47;;;15.84;100.00
71778;BME280;59609;52.430;4.668;2023-08-20T04:12:36;102177.69;;;15.72;100.00
71778;BME280;59609;52.430;4.668;2023-08-20T04:15:02;102159.91;;;15.57;100.00
71778;BME280;59609;52.430;4.668;2023-08-20T04:17:27;102183.56;;;15.61;100.00
71778;BME280;59609;52.430;4.668;2023-08-20T04:19:53;102192.63;;;15.71;100.00
71778;BME280;59609;52.430;4.668;2023-08-20T04:22:18;102202.34;;;15.75;100.00
71778;BME280;59609;52.430;4.668;2023-08-20T04:24:43;102197.13;;;15.72;100.00
71778;BME280;59609;52.430;4.668;2023-08-20T04:27:09;102200.09;;;15.78;100.00
71778;BME280;59609;52.430;4.668;2023-08-20T04:29:34;102211.97;;;15.88;100.00
71778;BME280;59609;52.430;4.668;2023-08-20T04:31:59;102210.25;;;15.87;100.00
71778;BME280;59609;52.430;4.668;2023-08-20T04:34:25;102209.38;;;15.87;100.00
71778;BME280;59609;52.430;4.668;2023-08-20T04:36:50;102215.66;;;15.97;100.00
71778;BME280;59609;52.430;4.668;2023-08-20T04:39:18;102213.41;;;16.09;100.00
71778;BME280;59609;52.430;4.668;2023-08-20T04:41:43;102212.88;;;16.05;100.00
71778;BME280;59609;52.430;4.668;2023-08-20T04:44:09;102219.50;;;16.12;100.00
71778;BME280;59609;52.430;4.668;2023-08-20T04:46:34;102220.38;;;16.13;100.00
71778;BME280;59609;52.430;4.668;2023-08-20T04:49:00;102217.25;;;16.08;100.00
71778;BME280;59609;52.430;4.668;2023-08-20T04:51:25;102218.28;;;16.07;100.00
71778;BME280;59609;52.430;4.668;2023-08-20T04:53:50;102216.91;;;16.11;100.00
71778;BME280;59609;52.430;4.668;2023-08-20T04:56:16;102208.38;;;16.04;100.00
71778;BME280;59609;52.430;4.668;2023-08-20T04:58:41;102195.84;;;16.00;100.00
71778;BME280;59609;52.430;4.668;2023-08-20T05:01:06;102203.34;;;16.08;100.00
71778;BME280;59609;52.430;4.668;2023-08-20T05:03:34;102215.38;;;16.16;100.00
71778;BME280;59609;52.430;4.668;2023-08-20T05:05:59;102204.09;;;16.18;100.00
71778;BME280;59609;52.430;4.668;2023-08-20T05:08:25;102208.44;;;16.28;100.00
71778;BME280;59609;52.430;4.668;2023-08-20T05:10:50;102187.75;;;16.23;100.00
71778;BME280;59609;52.430;4.668;2023-08-20T05:13:17;102213.31;;;16.42;100.00
71778;BME280;59609;52.430;4.668;2023-08-20T05:15:42;102218.72;;;16.52;100.00
71778;BME280;59609;52.430;4.668;2023-08-20T05:18:07;102216.16;;;16.59;100.00
71778;BME280;59609;52.430;4.668;2023-08-20T05:20:33;102213.38;;;16.67;100.00
71778;BME280;59609;52.430;4.668;2023-08-20T05:22:58;102209.91;;;16.73;100.00
71778;BME280;59609;52.430;4.668;2023-08-20T05:25:24;102207.97;;;16.81;100.00
71778;BME280;59609;52.430;4.668;2023-08-20T05:27:49;102202.94;;;16.85;100.00
71778;BME280;59609;52.430;4.668;2023-08-20T05:30:14;102188.19;;;16.84;100.00
71778;BME280;59609;52.430;4.668;2023-08-20T05:32:40;102218.41;;;17.12;100.00
71778;BME280;59609;52.430;4.668;2023-08-20T05:35:05;102224.66;;;17.22;100.00
71778;BME280;59609;52.430;4.668;2023-08-20T05:37:31;102215.41;;;17.29;100.00
71778;BME280;59609;52.430;4.668;2023-08-20T05:39:56;102223.41;;;17.40;100.00
71778;BME280;59609;52.430;4.668;2023-08-20T05:42:22;102219.03;;;17.46;100.00
71778;BME280;59609;52.430;4.668;2023-08-20T05:44:47;102217.81;;;17.57;100.00
71778;BME280;59609;52.430;4.668;2023-08-20T05:47:12;102201.06;;;17.65;100.00
71778;BME280;59609;52.430;4.668;2023-08-20T05:49:38;102210.06;;;17.75;100.00
71778;BME280;59609;52.430;4.668;2023-08-20T05:52:03;102221.00;;;17.92;100.00
71778;BME280;59609;52.430;4.668;2023-08-20T05:54:29;102219.72;;;18.03;100.00
71778;BME280;59609;52.430;4.668;2023-08-20T05:56:54;102209.75;;;18.09;100.00
71778;BME280;59609;52.430;4.668;2023-08-20T05:59:20;102228.13;;;18.26;100.00
71778;BME280;59609;52.430;4.668;2023-08-20T06:01:45;102221.28;;;18.36;100.00
71778;BME280;59609;52.430;4.668;2023-08-20T06:04:10;102225.06;;;18.43;100.00
71778;BME280;59609;52.430;4.668;2023-08-20T06:06:36;102226.78;;;18.52;100.00
71778;BME280;59609;52.430;4.668;2023-08-20T06:09:01;102200.22;;;18.57;100.00
71778;BME280;59609;52.430;4.668;2023-08-20T06:11:27;102215.44;;;18.77;100.00
71778;BME280;59609;52.430;4.668;2023-08-20T06:13:52;102195.38;;;18.73;100.00
71778;BME280;59609;52.430;4.668;2023-08-20T06:16:17;102200.44;;;18.92;100.00
71778;BME280;59609;52.430;4.668;2023-08-20T06:18:43;102204.06;;;19.16;100.00
71778;BME280;59609;52.430;4.668;2023-08-20T06:21:08;102214.00;;;19.33;100.00
71778;BME280;59609;52.430;4.668;2023-08-20T06:23:34;102188.72;;;19.12;100.00
71778;BME280;59609;52.430;4.668;2023-08-20T06:25:59;102214.13;;;19.39;100.00
71778;BME280;59609;52.430;4.668;2023-08-20T06:28:24;102207.88;;;19.52;100.00
71778;BME280;59609;52.430;4.668;2023-08-20T06:30:50;102205.47;;;19.49;100.00
71778;BME280;59609;52.430;4.668;2023-08-20T06:33:15;102201.75;;;19.71;100.00
71778;BME280;59609;52.430;4.668;2023-08-20T06:35:40;102197.50;;;19.61;100.00
71778;BME280;59609;52.430;4.668;2023-08-20T06:38:06;102202.66;;;19.93;100.00
71778;BME280;59609;52.430;4.668;2023-08-20T06:40:32;102216.66;;;20.08;100.00
71778;BME280;59609;52.430;4.668;2023-08-20T06:42:58;102208.66;;;20.04;100.00
71778;BME280;59609;52.430;4.668;2023-08-20T06:45:23;102210.94;;;20.30;100.00
71778;BME280;59609;52.430;4.668;2023-08-20T06:47:49;102213.41;;;20.40;100.00
71778;BME280;59609;52.430;4.668;2023-08-20T06:50:14;102203.41;;;20.52;100.00
71778;BME280;59609;52.430;4.668;2023-08-20T06:52:40;102207.69;;;20.48;100.00
71778;BME280;59609;52.430;4.668;2023-08-20T06:55:05;102211.75;;;20.67;100.00
71778;BME280;59609;52.430;4.668;2023-08-20T06:57:31;102219.28;;;20.66;100.00
71778;BME280;59609;52.430;4.668;2023-08-20T06:59:56;102225.09;;;20.86;100.00
71778;BME280;59609;52.430;4.668;2023-08-20T07:02:22;102232.69;;;20.92;100.00
71778;BME280;59609;52.430;4.668;2023-08-20T07:04:47;102221.75;;;20.76;100.00
71778;BME280;59609;52.430;4.668;2023-08-20T07:07:13;102231.06;;;21.25;100.00
71778;BME280;59609;52.430;4.668;2023-08-20T07:09:40;102235.69;;;21.12;100.00
71778;BME280;59609;52.430;4.668;2023-08-20T07:12:05;102240.72;;;21.16;100.00
71778;BME280;59609;52.430;4.668;2023-08-20T07:14:31;102242.28;;;21.25;100.00
71778;BME280;59609;52.430;4.668;2023-08-20T07:16:56;102243.50;;;21.16;100.00
71778;BME280;59609;52.430;4.668;2023-08-20T07:19:21;102237.84;;;21.65;100.00
71778;BME280;59609;52.430;4.668;2023-08-20T07:21:47;102250.47;;;22.10;100.00
71778;BME280;59609;52.430;4.668;2023-08-20T07:24:12;102247.63;;;22.03;100.00
71778;BME280;59609;52.430;4.668;2023-08-20T07:26:38;102249.53;;;21.69;100.00
71778;BME280;59609;52.430;4.668;2023-08-20T07:29:03;102242.50;;;21.24;100.00
71778;BME280;59609;52.430;4.668;2023-08-20T07:31:32;102264.41;;;21.69;100.00
71778;BME280;59609;52.430;4.668;2023-08-20T07:33:59;102267.00;;;21.98;100.00
71778;BME280;59609;52.430;4.668;2023-08-20T07:36:26;102250.00;;;21.79;100.00
71778;BME280;59609;52.430;4.668;2023-08-20T07:38:53;102262.44;;;21.63;100.00
71778;BME280;59609;52.430;4.668;2023-08-20T07:41:19;102273.69;;;21.42;100.00
71778;BME280;59609;52.430;4.668;2023-08-20T07:43:45;102270.94;;;21.48;100.00
71778;BME280;59609;52.430;4.668;2023-08-20T07:46:11;102273.00;;;21.33;100.00
71778;BME280;59609;52.430;4.668;2023-08-20T07:48:37;102267.44;;;21.40;100.00
71778;BME280;59609;52.430;4.668;2023-08-20T07:51:03;102276.09;;;21.45;100.00
71778;BME280;59609;52.430;4.668;2023-08-20T07:53:29;102278.53;;;21.48;100.00
71778;BME280;59609;52.430;4.668;2023-08-20T07:55:55;102286.41;;;21.38;100.00
71778;BME280;59609;52.430;4.668;2023-08-20T07:58:20;102281.72;;;21.45;100.00
71778;BME280;59609;52.430;4.668;2023-08-20T08:00:46;102289.94;;;21.74;100.00
71778;BME280;59609;52.430;4.668;2023-08-20T08:03:12;102289.69;;;22.38;100.00
71778;BME280;59609;52.430;4.668;2023-08-20T08:05:40;102278.84;;;22.95;100.00
71778;BME280;59609;52.430;4.668;2023-08-20T08:08:05;102279.97;;;22.94;100.00
71778;BME280;59609;52.430;4.668;2023-08-20T08:10:31;102282.13;;;23.05;100.00
71778;BME280;59609;52.430;4.668;2023-08-20T08:12:56;102290.47;;;22.66;100.00
71778;BME280;59609;52.430;4.668;2023-08-20T08:15:22;102296.66;;;22.55;100.00
71778;BME280;59609;52.430;4.668;2023-08-20T08:17:47;102293.03;;;22.14;100.00
71778;BME280;59609;52.430;4.668;2023-08-20T08:20:12;102278.03;;;22.00;100.00
71778;BME280;59609;52.430;4.668;2023-08-20T08:22:38;102289.84;;;22.30;100.00
71778;BME280;59609;52.430;4.668;2023-08-20T08:25:04;102289.25;;;22.88;100.00
71778;BME280;59609;52.430;4.668;2023-08-20T08:27:30;102301.19;;;23.30;100.00
71778;BME280;59609;52.430;4.668;2023-08-20T08:29:55;102292.16;;;23.54;100.00
71778;BME280;59609;52.430;4.668;2023-08-20T08:32:20;102299.50;;;23.42;100.00
71778;BME280;59609;52.430;4.668;2023-08-20T08:34:46;102317.19;;;23.36;100.00
71778;BME280;59609;52.430;4.668;2023-08-20T08:37:11;102307.22;;;23.14;100.00
71778;BME280;59609;52.430;4.668;2023-08-20T08:39:36;102297.78;;;23.41;100.00
71778;BME280;59609;52.430;4.668;2023-08-20T08:42:04;102310.91;;;23.01;100.00
71778;BME280;59609;52.430;4.668;2023-08-20T08:44:34;102317.16;;;23.03;100.00
71778;BME280;59609;52.430;4.668;2023-08-20T08:47:02;102300.59;;;23.41;100.00
71778;BME280;59609;52.430;4.668;2023-08-20T08:49:28;102318.94;;;23.89;100.00
71778;BME280;59609;52.430;4.668;2023-08-20T08:51:57;102319.34;;;24.06;100.00
71778;BME280;59609;52.430;4.668;2023-08-20T08:54:23;102326.28;;;24.23;100.00
71778;BME280;59609;52.430;4.668;2023-08-20T08:56:50;102307.72;;;23.63;100.00
71778;BME280;59609;52.430;4.668;2023-08-20T08:59:15;102308.31;;;24.04;100.00
71778;BME280;59609;52.430;4.668;2023-08-20T09:01:41;102321.78;;;23.76;100.00
71778;BME280;59609;52.430;4.668;2023-08-20T09:04:07;102325.91;;;23.80;100.00
71778;BME280;59609;52.430;4.668;2023-08-20T09:06:52;102329.56;;;23.87;100.00
71778;BME280;59609;52.430;4.668;2023-08-20T09:09:20;102296.66;;;23.48;100.00
71778;BME280;59609;52.430;4.668;2023-08-20T09:11:49;102301.22;;;23.76;100.00
71778;BME280;59609;52.430;4.668;2023-08-20T09:14:32;102335.44;;;23.66;100.00
71778;BME280;59609;52.430;4.668;2023-08-20T09:17:01;102333.00;;;23.24;100.00
71778;BME280;59609;52.430;4.668;2023-08-20T09:19:35;102336.50;;;23.45;100.00
71778;BME280;59609;52.430;4.668;2023-08-20T09:22:01;102332.97;;;23.04;100.00
71778;BME280;59609;52.430;4.668;2023-08-20T09:24:39;102330.63;;;23.21;100.00
71778;BME280;59609;52.430;4.668;2023-08-20T09:27:07;102331.91;;;23.18;100.00
71778;BME280;59609;52.430;4.668;2023-08-20T09:29:55;102334.47;;;23.00;100.00
71778;BME280;59609;52.430;4.668;2023-08-20T09:32:21;102334.72;;;23.12;100.00
71778;BME280;59609;52.430;4.668;2023-08-20T09:34:50;102346.25;;;23.56;100.00
71778;BME280;59609;52.430;4.668;2023-08-20T09:37:18;102345.97;;;23.18;100.00
71778;BME280;59609;52.430;4.668;2023-08-20T09:39:44;102328.88;;;23.33;100.00
71778;BME280;59609;52.430;4.668;2023-08-20T09:42:11;102337.59;;;23.57;100.00
71778;BME280;59609;52.430;4.668;2023-08-20T09:44:38;102343.00;;;23.72;100.00
71778;BME280;59609;52.430;4.668;2023-08-20T09:47:09;102323.06;;;24.00;100.00
71778;BME280;59609;52.430;4.668;2023-08-20T09:49:43;102327.19;;;23.97;95.97
71778;BME280;59609;52.430;4.668;2023-08-20T09:52:11;102312.88;;;24.12;93.61
71778;BME280;59609;52.430;4.668;2023-08-20T09:57:38;102330.84;;;24.18;93.67
71778;BME280;59609;52.430;4.668;2023-08-20T10:00:05;102329.03;;;24.43;91.29
71778;BME280;59609;52.430;4.668;2023-08-20T10:02:32;102321.88;;;24.47;91.08
71778;BME280;59609;52.430;4.668;2023-08-20T10:04:59;102315.03;;;24.74;88.91
71778;BME280;59609;52.430;4.668;2023-08-20T10:07:28;102328.00;;;24.31;92.96
71778;BME280;59609;52.430;4.668;2023-08-20T10:09:56;102327.34;;;24.86;88.88
71778;BME280;59609;52.430;4.668;2023-08-20T10:12:26;102335.41;;;25.21;87.90
71778;BME280;59609;52.430;4.668;2023-08-20T10:14:51;102328.81;;;24.51;87.31
71778;BME280;59609;52.430;4.668;2023-08-20T10:17:17;102325.22;;;24.69;86.04
71778;BME280;59609;52.430;4.668;2023-08-20T10:19:42;102332.03;;;24.54;88.89
71778;BME280;59609;52.430;4.668;2023-08-20T10:22:08;102310.66;;;24.34;88.87
71778;BME280;59609;52.430;4.668;2023-08-20T10:25:00;102337.09;;;24.33;90.08
71778;BME280;59609;52.430;4.668;2023-08-20T10:27:31;102342.88;;;24.57;86.38
71778;BME280;59609;52.430;4.668;2023-08-20T10:29:58;102341.16;;;25.01;84.39
71778;BME280;59609;52.430;4.668;2023-08-20T10:32:48;102349.81;;;24.55;87.79
71778;BME280;59609;52.430;4.668;2023-08-20T10:35:25;102347.75;;;24.82;89.02
71778;BME280;59609;52.430;4.668;2023-08-20T10:49:01;102331.50;;;25.22;82.17
71778;BME280;59609;52.430;4.668;2023-08-20T10:51:36;102324.28;;;24.94;84.05
71778;BME280;59609;52.430;4.668;2023-08-20T10:54:02;102347.50;;;25.28;84.29
71778;BME280;59609;52.430;4.668;2023-08-20T11:01:49;102317.59;;;25.76;82.67
71778;BME280;59609;52.430;4.668;2023-08-20T11:04:15;102323.66;;;25.55;81.88
71778;BME280;59609;52.430;4.668;2023-08-20T11:06:41;102319.06;;;25.60;81.54
71778;BME280;59609;52.430;4.668;2023-08-20T11:09:07;102323.13;;;25.89;77.61
71778;BME280;59609;52.430;4.668;2023-08-20T11:11:33;102320.72;;;25.68;77.91
71778;BME280;59609;52.430;4.668;2023-08-20T11:14:06;102327.88;;;26.13;77.07
71778;BME280;59609;52.430;4.668;2023-08-20T11:16:35;102321.34;;;25.70;76.55
71778;BME280;59609;52.430;4.668;2023-08-20T11:19:02;102339.84;;;26.09;73.80
71778;BME280;59609;52.430;4.668;2023-08-20T11:21:31;102347.47;;;26.33;72.75
71778;BME280;59609;52.430;4.668;2023-08-20T11:23:57;102342.66;;;25.91;73.24
71778;BME280;59609;52.430;4.668;2023-08-20T11:26:22;102329.41;;;25.67;74.79
71778;BME280;59609;52.430;4.668;2023-08-20T11:28:48;102349.91;;;25.55;74.47
71778;BME280;59609;52.430;4.668;2023-08-20T11:31:13;102334.72;;;25.81;72.36
71778;BME280;59609;52.430;4.668;2023-08-20T11:33:40;102350.13;;;25.85;70.75
71778;BME280;59609;52.430;4.668;2023-08-20T11:36:07;102339.31;;;25.76;72.58
71778;BME280;59609;52.430;4.668;2023-08-20T11:38:33;102346.41;;;25.60;73.75
71778;BME280;59609;52.430;4.668;2023-08-20T11:40:59;102350.69;;;25.94;68.14
71778;BME280;59609;52.430;4.668;2023-08-20T11:43:27;102347.22;;;25.67;69.26
71778;BME280;59609;52.430;4.668;2023-08-20T11:45:52;102339.38;;;26.19;69.96
71778;BME280;59609;52.430;4.668;2023-08-20T11:48:19;102337.09;;;26.27;69.21
71778;BME280;59609;52.430;4.668;2023-08-20T11:50:46;102342.00;;;26.13;66.99
71778;BME280;59609;52.430;4.668;2023-08-20T11:53:12;102339.78;;;25.73;66.46
71778;BME280;59609;52.430;4.668;2023-08-20T11:55:39;102341.19;;;25.88;69.53
71778;BME280;59609;52.430;4.668;2023-08-20T11:58:05;102350.13;;;25.85;68.68
71778;BME280;59609;52.430;4.668;2023-08-20T12:00:31;102347.66;;;26.13;68.87
71778;BME280;59609;52.430;4.668;2023-08-20T12:02:57;102353.25;;;25.95;66.30
71778;BME280;59609;52.430;4.668;2023-08-20T12:05:28;102344.69;;;25.84;68.43
71778;BME280;59609;52.430;4.668;2023-08-20T12:08:01;102351.22;;;26.02;68.79
71778;BME280;59609;52.430;4.668;2023-08-20T12:10:29;102349.03;;;26.47;68.03
71778;BME280;59609;52.430;4.668;2023-08-20T12:12:56;102355.31;;;26.49;65.81
71778;BME280;59609;52.430;4.668;2023-08-20T12:15:23;102350.53;;;26.50;67.55
71778;BME280;59609;52.430;4.668;2023-08-20T12:18:15;102353.84;;;26.47;68.22
71778;BME280;59609;52.430;4.668;2023-08-20T12:20:41;102360.19;;;26.24;67.15
71778;BME280;59609;52.430;4.668;2023-08-20T12:23:07;102357.50;;;26.29;65.78
71778;BME280;59609;52.430;4.668;2023-08-20T12:25:34;102356.47;;;27.15;65.06
71778;BME280;59609;52.430;4.668;2023-08-20T12:28:04;102363.09;;;26.90;64.86
71778;BME280;59609;52.430;4.668;2023-08-20T12:30:31;102369.84;;;26.71;64.37
71778;BME280;59609;52.430;4.668;2023-08-20T12:32:57;102368.38;;;26.69;65.30
71778;BME280;59609;52.430;4.668;2023-08-20T12:35:22;102360.81;;;26.44;64.62
71778;BME280;59609;52.430;4.668;2023-08-20T12:37:47;102365.31;;;26.52;64.43
71778;BME280;59609;52.430;4.668;2023-08-20T12:40:13;102344.25;;;26.30;65.16
71778;BME280;59609;52.430;4.668;2023-08-20T12:42:39;102363.88;;;26.61;64.48
71778;BME280;59609;52.430;4.668;2023-08-20T12:45:06;102360.28;;;26.11;64.52
71778;BME280;59609;52.430;4.668;2023-08-20T12:47:33;102369.13;;;26.76;63.64
71778;BME280;59609;52.430;4.668;2023-08-20T12:49:58;102358.53;;;26.89;63.05
71778;BME280;59609;52.430;4.668;2023-08-20T12:52:24;102365.66;;;27.10;62.42
71778;BME280;59609;52.430;4.668;2023-08-20T12:54:49;102366.78;;;26.54;63.45
71778;BME280;59609;52.430;4.668;2023-08-20T12:57:15;102367.50;;;26.86;62.90
71778;BME280;59609;52.430;4.668;2023-08-20T12:59:40;102366.25;;;26.64;64.74
71778;BME280;59609;52.430;4.668;2023-08-20T13:02:05;102357.94;;;26.87;63.34
71778;BME280;59609;52.430;4.668;2023-08-20T13:04:31;102360.88;;;26.56;62.09
71778;BME280;59609;52.430;4.668;2023-08-20T13:06:57;102345.69;;;27.65;59.86
71778;BME280;59609;52.430;4.668;2023-08-20T13:09:23;102349.84;;;27.02;60.21